sensor_id;sensor_type;location;lat;lon;timestamp;P1;durP1;ratioP1;P2;durP2;ratioP2
39016;SDS011;24784;45.582;5.276;2023-02-03T00:01:32;56.20;;;27.42;;
39016;SDS011;24784;45.582;5.276;2023-02-03T00:03:59;64.55;;;27.40;;
39016;SDS011;24784;45.582;5.276;2023-02-03T00:06:24;72.28;;;31.48;;
39016;SDS011;24784;45.582;5.276;2023-02-03T00:08:54;91.97;;;36.15;;
39016;SDS011;24784;45.582;5.276;2023-02-03T00:11:21;92.97;;;36.90;;
39016;SDS011;24784;45.582;5.276;2023-02-03T00:13:47;106.78;;;42.03;;
39016;SDS011;24784;45.582;5.276;2023-02-03T00:16:12;89.47;;;35.92;;
39016;SDS011;24784;45.582;5.276;2023-02-03T00:18:38;96.00;;;35.85;;
39016;SDS011;24784;45.582;5.276;2023-02-03T00:21:04;61.13;;;24.42;;
39016;SDS011;24784;45.582;5.276;2023-02-03T00:23:30;29.88;;;14.95;;
39016;SDS011;24784;45.582;5.276;2023-02-03T00:26:17;38.65;;;13.25;;
39016;SDS011;24784;45.582;5.276;2023-02-03T00:28:43;27.35;;;11.27;;
39016;SDS011;24784;45.582;5.276;2023-02-03T00:31:19;28.63;;;12.15;;
39016;SDS011;24784;45.582;5.276;2023-02-03T00:33:46;26.27;;;10.98;;
39016;SDS011;24784;45.582;5.276;2023-02-03T00:36:17;25.52;;;9.45;;
39016;SDS011;24784;45.582;5.276;2023-02-03T00:38:42;19.45;;;8.65;;
39016;SDS011;24784;45.582;5.276;2023-02-03T00:41:08;22.63;;;9.25;;
39016;SDS011;24784;45.582;5.276;2023-02-03T00:43:34;23.92;;;8.55;;
39016;SDS011;24784;45.582;5.276;2023-02-03T00:45:59;19.00;;;8.38;;
39016;SDS011;24784;45.582;5.276;2023-02-03T00:48:25;30.77;;;8.23;;
39016;SDS011;24784;45.582;5.276;2023-02-03T00:50:51;19.00;;;8.55;;
39016;SDS011;24784;45.582;5.276;2023-02-03T00:53:16;20.17;;;8.93;;
39016;SDS011;24784;45.582;5.276;2023-02-03T00:55:42;23.38;;;8.57;;
39016;SDS011;24784;45.582;5.276;2023-02-03T00:58:08;24.98;;;9.02;;
39016;SDS011;24784;45.582;5.276;2023-02-03T01:00:34;19.27;;;8.48;;
39016;SDS011;24784;45.582;5.276;2023-02-03T01:03:00;26.05;;;9.52;;
39016;SDS011;24784;45.582;5.276;2023-02-03T01:05:25;17.67;;;9.43;;
39016;SDS011;24784;45.582;5.276;2023-02-03T01:07:51;20.60;;;9.38;;
39016;SDS011;24784;45.582;5.276;2023-02-03T01:10:17;21.23;;;8.38;;
39016;SDS011;24784;45.582;5.276;2023-02-03T01:12:42;20.88;;;8.77;;
39016;SDS011;24784;45.582;5.276;2023-02-03T01:15:08;17.75;;;8.57;;
39016;SDS011;24784;45.582;5.276;2023-02-03T01:17:34;19.00;;;9.07;;
39016;SDS011;24784;45.582;5.276;2023-02-03T01:20:00;24.25;;;8.93;;
39016;SDS011;24784;45.582;5.276;2023-02-03T01:22:27;24.90;;;8.35;;
39016;SDS011;24784;45.582;5.276;2023-02-03T01:24:54;21.35;;;8.30;;
39016;SDS011;24784;45.582;5.276;2023-02-03T01:27:20;22.30;;;9.05;;
39016;SDS011;24784;45.582;5.276;2023-02-03T01:29:45;20.95;;;8.88;;
39016;SDS011;24784;45.582;5.276;2023-02-03T01:32:11;21.33;;;8.10;;
39016;SDS011;24784;45.582;5.276;2023-02-03T01:34:37;21.83;;;8.55;;
39016;SDS011;24784;45.582;5.276;2023-02-03T01:37:03;22.63;;;8.18;;
39016;SDS011;24784;45.582;5.276;2023-02-03T01:39:29;19.92;;;8.07;;
39016;SDS011;24784;45.582;5.276;2023-02-03T01:41:55;22.67;;;8.60;;
39016;SDS011;24784;45.582;5.276;2023-02-03T01:49:46;16.05;;;8.18;;
39016;SDS011;24784;45.582;5.276;2023-02-03T01:52:16;29.13;;;10.25;;
39016;SDS011;24784;45.582;5.276;2023-02-03T01:54:42;19.15;;;8.18;;
39016;SDS011;24784;45.582;5.276;2023-02-03T01:57:18;20.67;;;8.85;;
39016;SDS011;24784;45.582;5.276;2023-02-03T01:59:47;21.40;;;8.77;;
39016;SDS011;24784;45.582;5.276;2023-02-03T02:02:13;21.23;;;8.30;;
39016;SDS011;24784;45.582;5.276;2023-02-03T02:04:49;22.45;;;8.20;;
39016;SDS011;24784;45.582;5.276;2023-02-03T02:07:36;17.20;;;8.05;;
39016;SDS011;24784;45.582;5.276;2023-02-03T02:10:03;19.38;;;8.35;;
39016;SDS011;24784;45.582;5.276;2023-02-03T02:12:30;17.67;;;7.65;;
39016;SDS011;24784;45.582;5.276;2023-02-03T02:14:56;15.85;;;7.65;;
39016;SDS011;24784;45.582;5.276;2023-02-03T02:17:27;20.70;;;7.75;;
39016;SDS011;24784;45.582;5.276;2023-02-03T02:20:09;21.83;;;8.73;;
39016;SDS011;24784;45.582;5.276;2023-02-03T02:45:14;14.93;;;7.72;;
39016;SDS011;24784;45.582;5.276;2023-02-03T02:47:55;17.17;;;8.27;;
39016;SDS011;24784;45.582;5.276;2023-02-03T02:50:44;16.45;;;7.00;;
39016;SDS011;24784;45.582;5.276;2023-02-03T02:53:12;15.98;;;7.30;;
39016;SDS011;24784;45.582;5.276;2023-02-03T02:55:39;15.25;;;7.47;;
39016;SDS011;24784;45.582;5.276;2023-02-03T02:58:08;16.70;;;7.90;;
39016;SDS011;24784;45.582;5.276;2023-02-03T03:00:38;20.70;;;7.35;;
39016;SDS011;24784;45.582;5.276;2023-02-03T03:05:38;15.05;;;7.68;;
39016;SDS011;24784;45.582;5.276;2023-02-03T03:08:07;14.32;;;7.60;;
39016;SDS011;24784;45.582;5.276;2023-02-03T03:10:36;27.95;;;8.73;;
39016;SDS011;24784;45.582;5.276;2023-02-03T03:13:05;20.15;;;7.25;;
39016;SDS011;24784;45.582;5.276;2023-02-03T03:15:34;19.90;;;8.23;;
39016;SDS011;24784;45.582;5.276;2023-02-03T03:18:09;17.13;;;7.00;;
39016;SDS011;24784;45.582;5.276;2023-02-03T03:20:40;14.45;;;6.82;;
39016;SDS011;24784;45.582;5.276;2023-02-03T03:23:10;23.38;;;7.70;;
39016;SDS011;24784;45.582;5.276;2023-02-03T03:25:45;21.85;;;7.10;;
39016;SDS011;24784;45.582;5.276;2023-02-03T03:28:20;23.67;;;7.53;;
39016;SDS011;24784;45.582;5.276;2023-02-03T03:30:50;15.85;;;7.00;;
39016;SDS011;24784;45.582;5.276;2023-02-03T03:33:17;20.10;;;7.53;;
39016;SDS011;24784;45.582;5.276;2023-02-03T03:35:48;15.65;;;6.97;;
39016;SDS011;24784;45.582;5.276;2023-02-03T03:41:24;17.23;;;7.35;;
39016;SDS011;24784;45.582;5.276;2023-02-03T03:44:03;22.42;;;7.90;;
39016;SDS011;24784;45.582;5.276;2023-02-03T03:46:44;22.80;;;8.50;;
39016;SDS011;24784;45.582;5.276;2023-02-03T03:49:18;14.50;;;7.60;;
39016;SDS011;24784;45.582;5.276;2023-02-03T03:51:47;22.17;;;8.25;;
39016;SDS011;24784;45.582;5.276;2023-02-03T03:54:16;17.00;;;8.05;;
39016;SDS011;24784;45.582;5.276;2023-02-03T03:56:55;27.52;;;7.93;;
39016;SDS011;24784;45.582;5.276;2023-02-03T03:59:25;22.85;;;8.50;;
39016;SDS011;24784;45.582;5.276;2023-02-03T04:01:55;18.58;;;7.57;;
39016;SDS011;24784;45.582;5.276;2023-02-03T04:04:23;19.58;;;8.30;;
39016;SDS011;24784;45.582;5.276;2023-02-03T04:06:52;22.08;;;7.53;;
39016;SDS011;24784;45.582;5.276;2023-02-03T04:09:18;18.08;;;8.00;;
39016;SDS011;24784;45.582;5.276;2023-02-03T04:11:44;13.77;;;8.00;;
39016;SDS011;24784;45.582;5.276;2023-02-03T04:14:25;24.73;;;8.20;;
39016;SDS011;24784;45.582;5.276;2023-02-03T04:16:51;17.85;;;8.13;;
39016;SDS011;24784;45.582;5.276;2023-02-03T04:19:17;20.25;;;7.53;;
39016;SDS011;24784;45.582;5.276;2023-02-03T04:21:43;15.48;;;8.15;;
39016;SDS011;24784;45.582;5.276;2023-02-03T04:24:09;24.65;;;7.80;;
39016;SDS011;24784;45.582;5.276;2023-02-03T04:26:35;20.80;;;7.85;;
39016;SDS011;24784;45.582;5.276;2023-02-03T04:29:01;25.65;;;8.80;;
39016;SDS011;24784;45.582;5.276;2023-02-03T04:31:27;24.50;;;7.88;;
39016;SDS011;24784;45.582;5.276;2023-02-03T04:33:53;21.85;;;8.32;;
39016;SDS011;24784;45.582;5.276;2023-02-03T04:36:19;17.27;;;7.00;;
39016;SDS011;24784;45.582;5.276;2023-02-03T04:38:45;23.13;;;7.47;;
39016;SDS011;24784;45.582;5.276;2023-02-03T04:41:13;17.80;;;7.45;;
39016;SDS011;24784;45.582;5.276;2023-02-03T04:43:38;21.38;;;8.02;;
39016;SDS011;24784;45.582;5.276;2023-02-03T04:46:04;16.58;;;7.35;;
39016;SDS011;24784;45.582;5.276;2023-02-03T04:48:29;18.58;;;7.35;;
39016;SDS011;24784;45.582;5.276;2023-02-03T04:50:59;16.55;;;8.27;;
39016;SDS011;24784;45.582;5.276;2023-02-03T04:53:29;25.92;;;8.02;;
39016;SDS011;24784;45.582;5.276;2023-02-03T04:55:55;13.85;;;7.30;;
39016;SDS011;24784;45.582;5.276;2023-02-03T04:58:21;21.20;;;7.70;;
39016;SDS011;24784;45.582;5.276;2023-02-03T05:00:47;17.02;;;7.80;;
39016;SDS011;24784;45.582;5.276;2023-02-03T05:03:12;16.38;;;7.78;;
39016;SDS011;24784;45.582;5.276;2023-02-03T05:05:38;19.33;;;7.47;;
39016;SDS011;24784;45.582;5.276;2023-02-03T05:08:04;22.63;;;8.57;;
39016;SDS011;24784;45.582;5.276;2023-02-03T05:10:29;15.82;;;8.18;;
39016;SDS011;24784;45.582;5.276;2023-02-03T05:12:55;18.33;;;7.75;;
39016;SDS011;24784;45.582;5.276;2023-02-03T05:15:21;18.13;;;7.13;;
39016;SDS011;24784;45.582;5.276;2023-02-03T05:17:47;15.70;;;7.60;;
39016;SDS011;24784;45.582;5.276;2023-02-03T05:20:15;14.10;;;6.90;;
39016;SDS011;24784;45.582;5.276;2023-02-03T05:22:41;16.45;;;6.85;;
39016;SDS011;24784;45.582;5.276;2023-02-03T05:25:07;15.98;;;7.80;;
39016;SDS011;24784;45.582;5.276;2023-02-03T05:27:33;19.25;;;7.60;;
39016;SDS011;24784;45.582;5.276;2023-02-03T05:29:59;13.90;;;7.90;;
39016;SDS011;24784;45.582;5.276;2023-02-03T05:32:24;20.10;;;7.30;;
39016;SDS011;24784;45.582;5.276;2023-02-03T05:34:51;14.32;;;7.00;;
39016;SDS011;24784;45.582;5.276;2023-02-03T05:37:16;13.25;;;6.43;;
39016;SDS011;24784;45.582;5.276;2023-02-03T05:39:42;17.00;;;6.78;;
39016;SDS011;24784;45.582;5.276;2023-02-03T05:42:08;20.33;;;7.30;;
39016;SDS011;24784;45.582;5.276;2023-02-03T05:44:33;19.52;;;7.53;;
39016;SDS011;24784;45.582;5.276;2023-02-03T05:46:59;20.45;;;7.85;;
39016;SDS011;24784;45.582;5.276;2023-02-03T05:49:25;17.63;;;7.45;;
39016;SDS011;24784;45.582;5.276;2023-02-03T05:51:51;19.45;;;7.38;;
39016;SDS011;24784;45.582;5.276;2023-02-03T05:54:18;17.67;;;7.60;;
39016;SDS011;24784;45.582;5.276;2023-02-03T05:56:43;17.48;;;7.72;;
39016;SDS011;24784;45.582;5.276;2023-02-03T05:59:09;20.10;;;7.68;;
39016;SDS011;24784;45.582;5.276;2023-02-03T06:01:35;16.40;;;6.97;;
39016;SDS011;24784;45.582;5.276;2023-02-03T06:04:01;16.48;;;6.85;;
39016;SDS011;24784;45.582;5.276;2023-02-03T06:06:28;16.85;;;7.00;;
39016;SDS011;24784;45.582;5.276;2023-02-03T06:09:01;14.30;;;6.63;;
39016;SDS011;24784;45.582;5.276;2023-02-03T06:11:29;17.25;;;7.70;;
39016;SDS011;24784;45.582;5.276;2023-02-03T06:13:56;13.93;;;6.63;;
39016;SDS011;24784;45.582;5.276;2023-02-03T06:16:25;21.92;;;7.68;;
39016;SDS011;24784;45.582;5.276;2023-02-03T06:18:52;19.13;;;6.57;;
39016;SDS011;24784;45.582;5.276;2023-02-03T06:21:19;28.58;;;8.20;;
39016;SDS011;24784;45.582;5.276;2023-02-03T06:23:46;18.60;;;7.95;;
39016;SDS011;24784;45.582;5.276;2023-02-03T06:26:12;15.52;;;7.03;;
39016;SDS011;24784;45.582;5.276;2023-02-03T06:28:38;16.17;;;8.25;;
39016;SDS011;24784;45.582;5.276;2023-02-03T06:31:04;18.02;;;8.13;;
39016;SDS011;24784;45.582;5.276;2023-02-03T06:33:30;16.35;;;7.32;;
39016;SDS011;24784;45.582;5.276;2023-02-03T06:35:56;21.05;;;7.63;;
39016;SDS011;24784;45.582;5.276;2023-02-03T06:38:22;20.60;;;8.05;;
39016;SDS011;24784;45.582;5.276;2023-02-03T06:40:48;21.50;;;7.70;;
39016;SDS011;24784;45.582;5.276;2023-02-03T06:43:14;15.98;;;7.47;;
39016;SDS011;24784;45.582;5.276;2023-02-03T06:45:40;17.98;;;7.38;;
39016;SDS011;24784;45.582;5.276;2023-02-03T06:48:08;21.40;;;7.55;;
39016;SDS011;24784;45.582;5.276;2023-02-03T06:50:34;17.35;;;7.47;;
39016;SDS011;24784;45.582;5.276;2023-02-03T06:53:00;23.00;;;7.88;;
39016;SDS011;24784;45.582;5.276;2023-02-03T06:55:25;16.05;;;7.63;;
39016;SDS011;24784;45.582;5.276;2023-02-03T06:57:51;17.50;;;7.07;;
39016;SDS011;24784;45.582;5.276;2023-02-03T07:00:17;23.17;;;8.32;;
39016;SDS011;24784;45.582;5.276;2023-02-03T07:02:43;17.95;;;7.82;;
39016;SDS011;24784;45.582;5.276;2023-02-03T07:05:09;21.33;;;7.85;;
39016;SDS011;24784;45.582;5.276;2023-02-03T07:07:35;18.67;;;8.13;;
39016;SDS011;24784;45.582;5.276;2023-02-03T07:10:03;25.15;;;8.77;;
39016;SDS011;24784;45.582;5.276;2023-02-03T07:12:30;24.30;;;8.25;;
39016;SDS011;24784;45.582;5.276;2023-02-03T07:14:56;19.30;;;7.90;;
39016;SDS011;24784;45.582;5.276;2023-02-03T07:17:21;15.65;;;7.68;;
39016;SDS011;24784;45.582;5.276;2023-02-03T07:19:47;19.42;;;7.60;;
39016;SDS011;24784;45.582;5.276;2023-02-03T07:22:13;24.92;;;8.27;;
39016;SDS011;24784;45.582;5.276;2023-02-03T07:24:39;23.50;;;8.75;;
39016;SDS011;24784;45.582;5.276;2023-02-03T07:27:05;22.90;;;8.65;;
39016;SDS011;24784;45.582;5.276;2023-02-03T07:29:30;26.27;;;9.40;;
39016;SDS011;24784;45.582;5.276;2023-02-03T07:31:56;21.70;;;7.85;;
39016;SDS011;24784;45.582;5.276;2023-02-03T07:34:22;22.67;;;9.02;;
39016;SDS011;24784;45.582;5.276;2023-02-03T07:36:47;20.40;;;8.63;;
39016;SDS011;24784;45.582;5.276;2023-02-03T07:39:13;24.23;;;8.85;;
39016;SDS011;24784;45.582;5.276;2023-02-03T07:41:39;17.35;;;7.88;;
39016;SDS011;24784;45.582;5.276;2023-02-03T07:44:05;22.10;;;9.48;;
39016;SDS011;24784;45.582;5.276;2023-02-03T07:46:30;18.65;;;8.10;;
39016;SDS011;24784;45.582;5.276;2023-02-03T07:48:56;20.33;;;8.18;;
39016;SDS011;24784;45.582;5.276;2023-02-03T07:51:22;17.95;;;8.32;;
39016;SDS011;24784;45.582;5.276;2023-02-03T07:53:47;18.73;;;8.85;;
39016;SDS011;24784;45.582;5.276;2023-02-03T07:56:13;20.30;;;8.30;;
39016;SDS011;24784;45.582;5.276;2023-02-03T07:58:39;29.40;;;9.05;;
39016;SDS011;24784;45.582;5.276;2023-02-03T08:01:14;27.27;;;8.52;;
39016;SDS011;24784;45.582;5.276;2023-02-03T08:03:40;18.27;;;8.18;;
39016;SDS011;24784;45.582;5.276;2023-02-03T08:06:07;23.55;;;8.38;;
39016;SDS011;24784;45.582;5.276;2023-02-03T08:08:33;21.08;;;9.05;;
39016;SDS011;24784;45.582;5.276;2023-02-03T08:10:59;24.92;;;9.60;;
39016;SDS011;24784;45.582;5.276;2023-02-03T08:13:25;27.48;;;9.10;;
39016;SDS011;24784;45.582;5.276;2023-02-03T08:15:51;17.02;;;8.82;;
39016;SDS011;24784;45.582;5.276;2023-02-03T08:18:16;24.17;;;9.23;;
39016;SDS011;24784;45.582;5.276;2023-02-03T08:20:42;28.77;;;10.90;;
39016;SDS011;24784;45.582;5.276;2023-02-03T08:23:08;23.63;;;11.10;;
39016;SDS011;24784;45.582;5.276;2023-02-03T08:25:34;32.58;;;11.90;;
39016;SDS011;24784;45.582;5.276;2023-02-03T08:27:59;29.55;;;13.00;;
39016;SDS011;24784;45.582;5.276;2023-02-03T08:30:25;39.03;;;13.95;;
39016;SDS011;24784;45.582;5.276;2023-02-03T08:32:51;33.22;;;16.05;;
39016;SDS011;24784;45.582;5.276;2023-02-03T08:35:17;36.33;;;14.35;;
39016;SDS011;24784;45.582;5.276;2023-02-03T08:37:42;32.85;;;13.00;;
39016;SDS011;24784;45.582;5.276;2023-02-03T08:40:08;29.85;;;12.23;;
39016;SDS011;24784;45.582;5.276;2023-02-03T08:42:35;31.50;;;12.23;;
39016;SDS011;24784;45.582;5.276;2023-02-03T08:45:01;31.58;;;12.65;;
39016;SDS011;24784;45.582;5.276;2023-02-03T08:47:27;28.05;;;11.30;;
39016;SDS011;24784;45.582;5.276;2023-02-03T08:49:52;29.40;;;11.90;;
39016;SDS011;24784;45.582;5.276;2023-02-03T08:52:18;35.97;;;14.02;;
39016;SDS011;24784;45.582;5.276;2023-02-03T08:54:44;37.63;;;17.00;;
39016;SDS011;24784;45.582;5.276;2023-02-03T08:57:11;43.70;;;16.30;;
39016;SDS011;24784;45.582;5.276;2023-02-03T08:59:37;37.25;;;16.60;;
39016;SDS011;24784;45.582;5.276;2023-02-03T09:02:06;36.28;;;16.23;;
39016;SDS011;24784;45.582;5.276;2023-02-03T09:04:34;41.38;;;15.82;;
39016;SDS011;24784;45.582;5.276;2023-02-03T09:07:00;38.40;;;15.38;;
39016;SDS011;24784;45.582;5.276;2023-02-03T09:09:27;32.03;;;13.98;;
39016;SDS011;24784;45.582;5.276;2023-02-03T09:11:53;24.83;;;12.02;;
39016;SDS011;24784;45.582;5.276;2023-02-03T09:14:29;23.80;;;11.55;;
39016;SDS011;24784;45.582;5.276;2023-02-03T09:16:58;26.05;;;11.93;;
39016;SDS011;24784;45.582;5.276;2023-02-03T09:19:25;26.38;;;12.02;;
39016;SDS011;24784;45.582;5.276;2023-02-03T09:21:51;25.58;;;10.65;;
39016;SDS011;24784;45.582;5.276;2023-02-03T09:24:17;25.08;;;11.32;;
39016;SDS011;24784;45.582;5.276;2023-02-03T09:26:43;24.42;;;10.98;;
39016;SDS011;24784;45.582;5.276;2023-02-03T09:29:09;28.23;;;10.50;;
39016;SDS011;24784;45.582;5.276;2023-02-03T09:31:34;23.58;;;10.45;;
39016;SDS011;24784;45.582;5.276;2023-02-03T09:34:00;26.92;;;12.30;;
39016;SDS011;24784;45.582;5.276;2023-02-03T09:36:26;24.50;;;12.02;;
39016;SDS011;24784;45.582;5.276;2023-02-03T09:38:51;28.45;;;12.35;;
39016;SDS011;24784;45.582;5.276;2023-02-03T09:43:59;29.27;;;12.82;;
39016;SDS011;24784;45.582;5.276;2023-02-03T09:46:49;30.85;;;14.90;;
39016;SDS011;24784;45.582;5.276;2023-02-03T09:51:49;33.03;;;13.85;;
39016;SDS011;24784;45.582;5.276;2023-02-03T09:57:27;35.05;;;14.45;;
39016;SDS011;24784;45.582;5.276;2023-02-03T10:00:00;34.80;;;14.32;;
39016;SDS011;24784;45.582;5.276;2023-02-03T10:09:03;30.23;;;13.05;;
39016;SDS011;24784;45.582;5.276;2023-02-03T10:19:22;34.75;;;12.48;;
39016;SDS011;24784;45.582;5.276;2023-02-03T10:21:58;31.90;;;11.88;;
39016;SDS011;24784;45.582;5.276;2023-02-03T10:27:15;30.58;;;12.65;;
39016;SDS011;24784;45.582;5.276;2023-02-03T10:29:57;29.45;;;11.00;;
39016;SDS011;24784;45.582;5.276;2023-02-03T10:32:42;22.15;;;11.05;;
39016;SDS011;24784;45.582;5.276;2023-02-03T10:35:12;28.05;;;10.63;;
39016;SDS011;24784;45.582;5.276;2023-02-03T10:37:43;28.70;;;10.05;;
39016;SDS011;24784;45.582;5.276;2023-02-03T10:40:12;21.80;;;8.80;;
39016;SDS011;24784;45.582;5.276;2023-02-03T10:42:40;29.92;;;9.85;;
39016;SDS011;24784;45.582;5.276;2023-02-03T10:45:27;26.48;;;8.82;;
39016;SDS011;24784;45.582;5.276;2023-02-03T10:47:54;24.52;;;8.95;;
39016;SDS011;24784;45.582;5.276;2023-02-03T10:50:21;22.38;;;8.77;;
39016;SDS011;24784;45.582;5.276;2023-02-03T10:53:40;20.02;;;7.93;;
39016;SDS011;24784;45.582;5.276;2023-02-03T10:56:03;20.80;;;7.10;;
39016;SDS011;24784;45.582;5.276;2023-02-03T10:58:34;11.18;;;6.05;;
39016;SDS011;24784;45.582;5.276;2023-02-03T11:01:09;13.70;;;6.82;;
39016;SDS011;24784;45.582;5.276;2023-02-03T11:03:36;12.88;;;4.68;;
39016;SDS011;24784;45.582;5.276;2023-02-03T11:08:31;11.60;;;5.15;;
39016;SDS011;24784;45.582;5.276;2023-02-03T11:11:18;13.40;;;4.45;;
39016;SDS011;24784;45.582;5.276;2023-02-03T11:13:45;14.52;;;4.53;;
39016;SDS011;24784;45.582;5.276;2023-02-03T11:16:16;8.43;;;3.40;;
39016;SDS011;24784;45.582;5.276;2023-02-03T11:18:53;9.35;;;3.33;;
39016;SDS011;24784;45.582;5.276;2023-02-03T11:21:29;13.65;;;3.05;;
39016;SDS011;24784;45.582;5.276;2023-02-03T11:26:34;8.40;;;2.63;;
39016;SDS011;24784;45.582;5.276;2023-02-03T11:29:05;8.95;;;3.00;;
39016;SDS011;24784;45.582;5.276;2023-02-03T11:31:39;9.70;;;3.20;;
39016;SDS011;24784;45.582;5.276;2023-02-03T11:34:15;6.80;;;2.33;;
39016;SDS011;24784;45.582;5.276;2023-02-03T11:36:43;4.80;;;2.47;;
39016;SDS011;24784;45.582;5.276;2023-02-03T11:39:25;6.57;;;2.88;;
39016;SDS011;24784;45.582;5.276;2023-02-03T11:41:52;8.68;;;2.63;;
39016;SDS011;24784;45.582;5.276;2023-02-03T11:46:47;6.50;;;2.28;;
39016;SDS011;24784;45.582;5.276;2023-02-03T11:55:11;7.32;;;2.20;;
39016;SDS011;24784;45.582;5.276;2023-02-03T11:57:51;7.22;;;2.08;;
39016;SDS011;24784;45.582;5.276;2023-02-03T12:08:34;8.40;;;2.05;;
39016;SDS011;24784;45.582;5.276;2023-02-03T12:19:52;5.95;;;1.73;;
39016;SDS011;24784;45.582;5.276;2023-02-03T12:31:06;4.50;;;2.40;;
39016;SDS011;24784;45.582;5.276;2023-02-03T12:33:47;4.65;;;2.28;;
39016;SDS011;24784;45.582;5.276;2023-02-03T12:36:25;12.82;;;2.65;;
39016;SDS011;24784;45.582;5.276;2023-02-03T12:39:06;4.57;;;2.15;;
39016;SDS011;24784;45.582;5.276;2023-02-03T12:41:59;6.82;;;2.40;;
39016;SDS011;24784;45.582;5.276;2023-02-03T12:47:44;7.93;;;2.17;;
39016;SDS011;24784;45.582;5.276;2023-02-03T12:50:15;5.28;;;2.63;;
39016;SDS011;24784;45.582;5.276;2023-02-03T12:58:02;3.17;;;2.20;;
39016;SDS011;24784;45.582;5.276;2023-02-03T13:08:35;4.68;;;1.73;;
39016;SDS011;24784;45.582;5.276;2023-02-03T13:11:36;5.40;;;1.80;;
39016;SDS011;24784;45.582;5.276;2023-02-03T13:16:47;5.47;;;1.73;;
39016;SDS011;24784;45.582;5.276;2023-02-03T13:19:17;4.68;;;1.73;;
39016;SDS011;24784;45.582;5.276;2023-02-03T13:21:47;4.55;;;1.92;;
39016;SDS011;24784;45.582;5.276;2023-02-03T13:24:14;5.47;;;1.92;;
39016;SDS011;24784;45.582;5.276;2023-02-03T13:29:33;4.40;;;1.75;;
39016;SDS011;24784;45.582;5.276;2023-02-03T13:40:47;4.00;;;1.90;;
39016;SDS011;24784;45.582;5.276;2023-02-03T13:43:21;6.50;;;2.58;;
39016;SDS011;24784;45.582;5.276;2023-02-03T13:45:53;3.08;;;1.70;;
39016;SDS011;24784;45.582;5.276;2023-02-03T13:48:20;5.10;;;2.00;;
39016;SDS011;24784;45.582;5.276;2023-02-03T13:51:00;2.35;;;1.52;;
39016;SDS011;24784;45.582;5.276;2023-02-03T13:53:26;6.03;;;2.50;;
39016;SDS011;24784;45.582;5.276;2023-02-03T13:55:58;6.13;;;2.13;;
39016;SDS011;24784;45.582;5.276;2023-02-03T13:58:27;3.13;;;1.90;;
39016;SDS011;24784;45.582;5.276;2023-02-03T14:05:53;6.80;;;2.05;;
39016;SDS011;24784;45.582;5.276;2023-02-03T14:16:47;3.97;;;1.80;;
39016;SDS011;24784;45.582;5.276;2023-02-03T14:22:00;6.80;;;2.08;;
39016;SDS011;24784;45.582;5.276;2023-02-03T14:24:34;5.55;;;1.92;;
39016;SDS011;24784;45.582;5.276;2023-02-03T14:30:05;15.43;;;3.95;;
39016;SDS011;24784;45.582;5.276;2023-02-03T14:32:50;4.35;;;2.10;;
39016;SDS011;24784;45.582;5.276;2023-02-03T14:35:37;3.00;;;1.65;;
39016;SDS011;24784;45.582;5.276;2023-02-03T14:38:08;6.45;;;2.08;;
39016;SDS011;24784;45.582;5.276;2023-02-03T14:43:14;5.13;;;1.98;;
39016;SDS011;24784;45.582;5.276;2023-02-03T14:48:44;7.18;;;2.35;;
39016;SDS011;24784;45.582;5.276;2023-02-03T14:51:39;5.15;;;2.13;;
39016;SDS011;24784;45.582;5.276;2023-02-03T14:54:17;4.60;;;1.75;;
39016;SDS011;24784;45.582;5.276;2023-02-03T15:02:26;8.10;;;2.17;;
39016;SDS011;24784;45.582;5.276;2023-02-03T15:07:48;5.20;;;2.05;;
39016;SDS011;24784;45.582;5.276;2023-02-03T15:10:22;7.82;;;2.30;;
39016;SDS011;24784;45.582;5.276;2023-02-03T15:12:54;6.80;;;2.10;;
39016;SDS011;24784;45.582;5.276;2023-02-03T15:15:23;7.63;;;2.20;;
39016;SDS011;24784;45.582;5.276;2023-02-03T15:17:52;4.75;;;2.20;;
39016;SDS011;24784;45.582;5.276;2023-02-03T15:23:16;3.92;;;1.90;;
39016;SDS011;24784;45.582;5.276;2023-02-03T15:25:45;5.72;;;1.92;;
39016;SDS011;24784;45.582;5.276;2023-02-03T15:28:18;3.20;;;2.10;;
39016;SDS011;24784;45.582;5.276;2023-02-03T15:30:46;7.57;;;1.95;;
39016;SDS011;24784;45.582;5.276;2023-02-03T15:33:16;7.05;;;2.22;;
39016;SDS011;24784;45.582;5.276;2023-02-03T15:35:46;4.90;;;1.70;;
39016;SDS011;24784;45.582;5.276;2023-02-03T15:38:16;5.20;;;1.88;;
39016;SDS011;24784;45.582;5.276;2023-02-03T15:40:47;5.10;;;2.20;;
39016;SDS011;24784;45.582;5.276;2023-02-03T15:43:40;9.93;;;2.33;;
39016;SDS011;24784;45.582;5.276;2023-02-03T15:46:13;9.50;;;2.70;;
39016;SDS011;24784;45.582;5.276;2023-02-03T15:51:54;4.90;;;1.80;;
39016;SDS011;24784;45.582;5.276;2023-02-03T15:54:22;4.93;;;2.03;;
39016;SDS011;24784;45.582;5.276;2023-02-03T15:57:47;5.97;;;1.88;;
39016;SDS011;24784;45.582;5.276;2023-02-03T15:59:58;4.70;;;1.80;;
39016;SDS011;24784;45.582;5.276;2023-02-03T16:02:29;6.50;;;1.92;;
39016;SDS011;24784;45.582;5.276;2023-02-03T16:04:55;5.97;;;1.75;;
39016;SDS011;24784;45.582;5.276;2023-02-03T16:07:27;7.75;;;3.38;;
39016;SDS011;24784;45.582;5.276;2023-02-03T16:09:54;6.15;;;2.85;;
39016;SDS011;24784;45.582;5.276;2023-02-03T16:14:51;4.05;;;1.75;;
39016;SDS011;24784;45.582;5.276;2023-02-03T16:22:39;4.47;;;2.22;;
39016;SDS011;24784;45.582;5.276;2023-02-03T16:28:03;5.10;;;2.20;;
39016;SDS011;24784;45.582;5.276;2023-02-03T16:31:15;10.27;;;1.95;;
39016;SDS011;24784;45.582;5.276;2023-02-03T16:34:02;5.80;;;1.92;;
39016;SDS011;24784;45.582;5.276;2023-02-03T16:37:01;5.78;;;2.20;;
39016;SDS011;24784;45.582;5.276;2023-02-03T16:39:55;4.20;;;2.28;;
39016;SDS011;24784;45.582;5.276;2023-02-03T16:42:39;11.00;;;2.38;;
39016;SDS011;24784;45.582;5.276;2023-02-03T16:48:09;5.20;;;2.35;;
39016;SDS011;24784;45.582;5.276;2023-02-03T16:50:54;7.18;;;3.00;;
39016;SDS011;24784;45.582;5.276;2023-02-03T16:53:25;5.00;;;2.35;;
39016;SDS011;24784;45.582;5.276;2023-02-03T16:55:53;5.95;;;2.65;;
39016;SDS011;24784;45.582;5.276;2023-02-03T16:58:20;9.18;;;2.95;;
39016;SDS011;24784;45.582;5.276;2023-02-03T17:00:47;7.15;;;2.45;;
39016;SDS011;24784;45.582;5.276;2023-02-03T17:03:17;8.25;;;3.20;;
39016;SDS011;24784;45.582;5.276;2023-02-03T17:05:45;7.05;;;3.25;;
39016;SDS011;24784;45.582;5.276;2023-02-03T17:08:12;6.80;;;3.42;;
39016;SDS011;24784;45.582;5.276;2023-02-03T17:10:40;7.07;;;3.70;;
39016;SDS011;24784;45.582;5.276;2023-02-03T17:13:07;7.88;;;3.17;;
39016;SDS011;24784;45.582;5.276;2023-02-03T17:15:33;9.13;;;4.07;;
39016;SDS011;24784;45.582;5.276;2023-02-03T17:18:03;4.38;;;2.60;;
39016;SDS011;24784;45.582;5.276;2023-02-03T17:20:29;5.30;;;3.00;;
39016;SDS011;24784;45.582;5.276;2023-02-03T17:22:55;5.80;;;2.83;;
39016;SDS011;24784;45.582;5.276;2023-02-03T17:25:21;11.73;;;2.53;;
39016;SDS011;24784;45.582;5.276;2023-02-03T17:27:47;8.32;;;3.00;;
39016;SDS011;24784;45.582;5.276;2023-02-03T17:30:13;6.28;;;3.20;;
39016;SDS011;24784;45.582;5.276;2023-02-03T17:32:39;6.32;;;3.08;;
39016;SDS011;24784;45.582;5.276;2023-02-03T17:35:04;10.82;;;3.40;;
39016;SDS011;24784;45.582;5.276;2023-02-03T17:37:31;6.90;;;2.90;;
39016;SDS011;24784;45.582;5.276;2023-02-03T17:39:58;7.82;;;3.05;;
39016;SDS011;24784;45.582;5.276;2023-02-03T17:42:23;9.25;;;3.35;;
39016;SDS011;24784;45.582;5.276;2023-02-03T17:44:49;9.43;;;4.03;;
39016;SDS011;24784;45.582;5.276;2023-02-03T17:47:15;13.43;;;3.45;;
39016;SDS011;24784;45.582;5.276;2023-02-03T17:49:40;8.07;;;3.53;;
39016;SDS011;24784;45.582;5.276;2023-02-03T17:52:08;12.23;;;3.92;;